createdAt,value
2023-05-15T00:01:11.705Z,77.27
2023-05-15T00:03:39.528Z,77.29
2023-05-15T00:06:08.877Z,73.88
2023-05-15T00:08:36.544Z,75.07
2023-05-15T00:11:04.355Z,73.24
2023-05-15T00:13:32.022Z,81.05
2023-05-15T00:15:59.846Z,83.65
2023-05-15T00:18:27.920Z,73.47
2023-05-15T00:20:55.738Z,74.25
2023-05-15T00:23:24.950Z,73.02
2023-05-15T00:25:52.668Z,71.39
2023-05-15T00:28:20.415Z,67.11
2023-05-15T00:30:48.133Z,74.87
2023-05-15T00:33:16.092Z,71.76
2023-05-15T00:35:43.777Z,68.03
2023-05-15T00:38:12.709Z,69.04
2023-05-15T00:40:42.550Z,75.91
2023-05-15T00:43:11.312Z,74.16
2023-05-15T00:45:40.601Z,71.26
2023-05-15T00:48:09.158Z,73.24
2023-05-15T00:50:37.134Z,68.54
2023-05-15T00:53:05.150Z,66.10
2023-05-15T00:55:33.477Z,70.22
2023-05-15T00:58:02.803Z,72.34
2023-05-15T01:00:32.248Z,71.09
2023-05-15T01:03:00.763Z,73.48
2023-05-15T01:05:29.293Z,71.51
2023-05-15T01:08:02.770Z,68.44
2023-05-15T01:10:30.505Z,72.16
2023-05-15T01:12:58.700Z,73.80
2023-05-15T01:15:27.772Z,69.46
2023-05-15T01:18:07.344Z,73.81
2023-05-15T01:20:45.688Z,70.23
2023-05-15T01:23:17.279Z,77.09
2023-05-15T01:26:01.856Z,74.18
2023-05-15T01:28:33.319Z,71.48
2023-05-15T01:31:08.958Z,75.29
2023-05-15T01:33:40.138Z,79.05
2023-05-15T01:36:13.114Z,76.57
2023-05-15T01:38:44.120Z,83.84
2023-05-15T01:41:17.632Z,79.50
2023-05-15T01:43:47.297Z,76.76
2023-05-15T01:46:16.391Z,81.94
2023-05-15T01:48:44.964Z,83.05
2023-05-15T01:51:14.410Z,81.83
2023-05-15T01:53:42.159Z,85.50
2023-05-15T01:56:14.721Z,86.48
2023-05-15T01:58:43.947Z,77.59
2023-05-15T02:01:14.470Z,76.67
2023-05-15T02:03:42.734Z,84.96
2023-05-15T02:06:10.511Z,83.78
2023-05-15T02:08:38.250Z,86.18
2023-05-15T02:11:05.979Z,88.12
2023-05-15T02:13:35.115Z,92.14
2023-05-15T02:16:03.197Z,94.83
2023-05-15T02:18:32.834Z,97.22
2023-05-15T02:21:02.925Z,95.46
2023-05-15T02:23:30.661Z,91.54
2023-05-15T02:26:10.634Z,93.57
2023-05-15T02:28:44.022Z,91.49
2023-05-15T02:31:15.807Z,88.15
2023-05-15T02:33:50.654Z,88.62
2023-05-15T02:36:22.214Z,77.87
2023-05-15T02:38:52.471Z,83.50
2023-05-15T02:41:21.064Z,85.17
2023-05-15T02:43:52.008Z,95.20
2023-05-15T02:46:20.139Z,93.54
2023-05-15T02:48:49.532Z,90.25
2023-05-15T02:51:17.222Z,92.72
2023-05-15T02:53:45.351Z,85.41
2023-05-15T02:56:13.019Z,83.13
2023-05-15T02:58:41.061Z,81.62
2023-05-15T03:01:09.136Z,78.15
2023-05-15T03:03:36.964Z,91.16
2023-05-15T03:06:06.269Z,86.06
2023-05-15T03:08:33.972Z,94.42
2023-05-15T03:11:01.664Z,96.01
2023-05-15T03:13:29.629Z,94.10
2023-05-15T03:15:57.575Z,88.20
2023-05-15T03:18:25.693Z,93.42
2023-05-15T03:20:53.818Z,100.00
2023-05-15T03:23:22.891Z,96.59
2023-05-15T03:25:50.579Z,90.23
2023-05-15T03:28:18.266Z,90.21
2023-05-15T03:30:46.017Z,100.00
2023-05-15T03:33:13.711Z,100.00
2023-05-15T03:35:41.413Z,100.00
2023-05-15T03:38:09.159Z,100.00
2023-05-15T03:40:39.265Z,100.00
2023-05-15T03:43:07.291Z,100.00
2023-05-15T03:45:35.324Z,100.00
2023-05-15T03:48:03.059Z,100.00
2023-05-15T03:50:30.826Z,100.00
2023-05-15T03:52:58.598Z,100.00
2023-05-15T03:55:26.520Z,100.00
2023-05-15T03:57:56.211Z,98.62
2023-05-15T04:00:24.555Z,99.42
2023-05-15T04:03:08.608Z,100.00
2023-05-15T04:05:36.861Z,100.00
2023-05-15T04:08:04.797Z,100.00
2023-05-15T04:10:33.720Z,100.00
2023-05-15T04:13:02.835Z,100.00
2023-05-15T04:15:31.050Z,100.00
2023-05-15T04:17:58.744Z,99.85
2023-05-15T04:20:26.645Z,100.00
2023-05-15T04:22:54.506Z,100.00
2023-05-15T04:25:22.442Z,100.00
2023-05-15T04:27:50.370Z,100.00
2023-05-15T04:30:19.546Z,100.00
2023-05-15T04:32:47.286Z,97.50
2023-05-15T04:35:15.524Z,93.87
2023-05-15T04:37:45.717Z,96.25
2023-05-15T04:40:16.303Z,100.00
2023-05-15T04:42:44.283Z,98.54
2023-05-15T04:45:12.199Z,91.25
2023-05-15T04:47:41.556Z,82.72
2023-05-15T04:50:10.306Z,97.28
2023-05-15T04:52:38.004Z,100.00
2023-05-15T04:55:07.029Z,100.00
2023-05-15T04:57:34.831Z,100.00
2023-05-15T05:00:02.560Z,100.00
2023-05-15T05:02:30.600Z,100.00
2023-05-15T05:04:59.707Z,100.00
2023-05-15T05:07:27.402Z,100.00
2023-05-15T05:09:55.118Z,100.00
2023-05-15T05:12:22.849Z,100.00
2023-05-15T05:14:50.576Z,100.00
2023-05-15T05:17:18.437Z,100.00
2023-05-15T05:19:46.197Z,100.00
2023-05-15T05:22:15.422Z,100.00
2023-05-15T05:24:46.201Z,100.00
2023-05-15T05:27:14.124Z,100.00
2023-05-15T05:29:41.793Z,100.00
2023-05-15T05:32:09.493Z,100.00
2023-05-15T05:34:37.217Z,100.00
2023-05-15T05:37:06.322Z,100.00
2023-05-15T05:39:35.830Z,100.00
2023-05-15T05:42:03.545Z,100.00
2023-05-15T05:44:31.247Z,100.00
2023-05-15T05:46:59.006Z,100.00
2023-05-15T05:49:35.657Z,100.00
2023-05-15T05:54:49.988Z,100.00
2023-05-15T05:57:17.727Z,100.00
2023-05-15T05:59:45.921Z,98.10
2023-05-15T06:02:28.925Z,97.85
2023-05-15T06:04:56.832Z,97.90
2023-05-15T06:07:25.474Z,87.48
2023-05-15T06:09:54.527Z,97.79
2023-05-15T06:12:23.195Z,98.38
2023-05-15T06:14:50.903Z,100.00
2023-05-15T06:17:18.835Z,95.31
2023-05-15T06:19:46.555Z,94.68
2023-05-15T06:22:14.209Z,89.00
2023-05-15T06:24:42.296Z,95.32
2023-05-15T06:27:11.406Z,100.00
2023-05-15T06:29:39.179Z,100.00
2023-05-15T06:32:07.324Z,100.00
2023-05-15T06:34:35.028Z,97.46
2023-05-15T06:37:03.106Z,100.00
2023-05-15T06:39:31.046Z,98.01
2023-05-15T06:42:01.347Z,97.36
2023-05-15T06:44:31.300Z,100.00
2023-05-15T06:46:59.279Z,100.00
2023-05-15T06:49:29.271Z,100.00
2023-05-15T06:51:56.949Z,100.00
2023-05-15T06:57:10.138Z,97.71
2023-05-15T06:59:51.650Z,100.00
2023-05-15T07:02:19.366Z,100.00
2023-05-15T07:04:47.076Z,100.00
2023-05-15T07:07:14.829Z,88.83
2023-05-15T07:09:42.499Z,96.28
2023-05-15T07:12:10.639Z,89.47
2023-05-15T07:14:38.353Z,91.70
2023-05-15T07:17:07.798Z,86.98
2023-05-15T07:19:35.615Z,94.13
2023-05-15T07:22:03.701Z,88.35
2023-05-15T07:24:31.501Z,90.65
2023-05-15T07:27:00.134Z,95.08
2023-05-15T07:29:27.893Z,100.00
2023-05-15T07:31:55.729Z,97.01
2023-05-15T07:34:24.986Z,97.88
2023-05-15T07:36:52.633Z,100.00
2023-05-15T07:39:20.435Z,100.00
2023-05-15T07:41:48.205Z,100.00
2023-05-15T07:44:15.829Z,100.00
2023-05-15T07:46:43.597Z,96.59
2023-05-15T07:49:11.398Z,96.35
2023-05-15T07:51:40.808Z,90.11
2023-05-15T07:54:08.459Z,95.13
2023-05-15T07:56:36.505Z,100.00
2023-05-15T07:59:04.567Z,93.05
2023-05-15T08:01:32.832Z,96.02
2023-05-15T08:04:00.898Z,91.05
2023-05-15T08:06:28.640Z,96.33
2023-05-15T08:08:57.707Z,94.73
2023-05-15T08:11:25.351Z,94.94
2023-05-15T08:13:53.241Z,90.46
2023-05-15T08:16:21.027Z,78.58
2023-05-15T08:18:53.161Z,85.87
2023-05-15T08:21:20.881Z,94.21
2023-05-15T08:23:48.516Z,98.46
2023-05-15T08:26:17.530Z,92.42
2023-05-15T08:28:45.182Z,86.68
2023-05-15T08:31:12.909Z,89.05
2023-05-15T08:33:40.609Z,92.14
2023-05-15T08:36:09.200Z,94.14
2023-05-15T08:38:46.153Z,95.54
2023-05-15T08:41:38.874Z,98.73
2023-05-15T08:44:08.276Z,86.75
2023-05-15T08:46:36.652Z,87.88
2023-05-15T08:49:07.909Z,89.74
2023-05-15T08:51:35.775Z,85.18
2023-05-15T08:54:03.630Z,94.04
2023-05-15T08:56:32.724Z,90.77
2023-05-15T08:59:00.647Z,87.41
2023-05-15T09:01:29.578Z,89.26
2023-05-15T09:03:57.295Z,88.18
2023-05-15T09:06:25.792Z,76.80
2023-05-15T09:08:56.215Z,76.54
2023-05-15T09:11:25.515Z,76.21
2023-05-15T09:13:54.605Z,82.81
2023-05-15T09:16:22.348Z,85.20
2023-05-15T09:18:50.958Z,78.91
2023-05-15T09:21:26.130Z,80.22
2023-05-15T09:23:54.076Z,79.60
2023-05-15T09:26:22.161Z,72.85
2023-05-15T09:28:50.146Z,74.58
2023-05-15T09:31:21.891Z,76.49
2023-05-15T09:34:00.309Z,65.88
2023-05-15T09:36:28.112Z,61.93
2023-05-15T09:39:00.055Z,73.61
2023-05-15T09:41:28.962Z,77.08
2023-05-15T09:43:57.326Z,68.07
2023-05-15T09:46:27.923Z,69.01
2023-05-15T09:48:56.323Z,70.03
2023-05-15T09:51:24.157Z,71.71
2023-05-15T09:53:53.301Z,78.52
2023-05-15T09:56:21.888Z,75.10
2023-05-15T09:58:56.178Z,66.93
2023-05-15T10:01:25.135Z,73.18
2023-05-15T10:04:01.169Z,70.02
2023-05-15T10:06:30.875Z,74.51
2023-05-15T10:08:58.994Z,75.45
2023-05-15T10:11:27.252Z,70.71
2023-05-15T10:13:55.042Z,74.71
2023-05-15T10:16:23.552Z,72.76
2023-05-15T10:18:53.090Z,74.66
2023-05-15T10:21:23.397Z,73.10
2023-05-15T10:23:52.278Z,72.02
2023-05-15T10:26:23.438Z,74.29
2023-05-15T10:28:51.528Z,67.05
2023-05-15T10:31:20.021Z,69.53
2023-05-15T10:33:49.110Z,67.25
2023-05-15T10:36:17.985Z,70.88
2023-05-15T10:38:47.322Z,68.38
2023-05-15T10:41:18.024Z,66.54
2023-05-15T10:43:47.123Z,63.49
2023-05-15T10:46:15.166Z,62.91
2023-05-15T10:48:45.641Z,63.02
2023-05-15T10:51:17.458Z,65.79
2023-05-15T10:53:45.721Z,66.64
2023-05-15T10:56:16.525Z,65.84
2023-05-15T10:58:48.665Z,63.58
2023-05-15T11:01:27.043Z,63.23
2023-05-15T11:04:07.614Z,62.16
2023-05-15T11:06:36.100Z,60.60
2023-05-15T11:09:35.343Z,61.84
2023-05-15T11:12:05.638Z,62.41
2023-05-15T11:14:34.926Z,58.69
2023-05-15T11:17:05.200Z,56.39
2023-05-15T11:19:36.165Z,59.95
2023-05-15T11:22:17.019Z,57.49
2023-05-15T11:24:53.505Z,56.12
2023-05-15T11:27:23.855Z,60.63
2023-05-15T11:30:09.212Z,57.93
2023-05-15T11:32:50.325Z,56.87
2023-05-15T11:35:23.599Z,56.31
2023-05-15T11:37:54.010Z,55.07
2023-05-15T11:40:24.025Z,53.87
2023-05-15T11:43:03.750Z,55.90
2023-05-15T11:45:32.521Z,51.52
2023-05-15T11:48:03.634Z,52.61
2023-05-15T11:50:32.674Z,50.72
2023-05-15T11:53:04.051Z,50.54
2023-05-15T11:55:33.203Z,48.59
2023-05-15T11:58:02.448Z,51.37
2023-05-15T12:00:30.146Z,50.67
2023-05-15T12:02:58.127Z,50.25
2023-05-15T12:05:25.878Z,48.18
2023-05-15T12:07:53.679Z,46.31
2023-05-15T12:10:21.557Z,47.01
2023-05-15T12:12:50.331Z,47.41
2023-05-15T12:15:19.624Z,45.67
2023-05-15T12:17:47.364Z,46.02
2023-05-15T12:20:18.222Z,45.20
2023-05-15T12:22:46.074Z,43.72
2023-05-15T12:25:16.020Z,43.91
2023-05-15T12:27:43.885Z,43.79
2023-05-15T12:30:12.445Z,41.84
2023-05-15T12:32:41.896Z,41.07
2023-05-15T12:35:11.764Z,41.12
2023-05-15T12:37:40.205Z,40.03
2023-05-15T12:40:10.378Z,39.47
2023-05-15T12:42:42.664Z,39.66
2023-05-15T12:45:14.586Z,39.16
2023-05-15T12:47:44.908Z,40.55
2023-05-15T12:50:14.963Z,41.01
2023-05-15T12:52:47.859Z,40.49
2023-05-15T12:55:18.931Z,39.02
2023-05-15T12:57:47.260Z,39.39
2023-05-15T13:00:16.108Z,37.43
2023-05-15T13:02:46.553Z,40.00
2023-05-15T13:05:14.824Z,37.03
2023-05-15T13:07:44.737Z,36.77
2023-05-15T13:10:13.443Z,38.56
2023-05-15T13:12:43.925Z,38.36
2023-05-15T13:15:24.161Z,37.69
2023-05-15T13:17:57.546Z,36.44
2023-05-15T13:20:25.643Z,35.54
2023-05-15T13:22:53.419Z,35.82
2023-05-15T13:25:21.929Z,35.28
2023-05-15T13:27:50.059Z,34.94
2023-05-15T13:30:18.953Z,34.62
2023-05-15T13:32:46.779Z,33.96
2023-05-15T13:35:25.715Z,32.99
2023-05-15T13:40:28.613Z,35.57
2023-05-15T13:45:37.927Z,35.30
2023-05-15T13:48:06.216Z,33.57
2023-05-15T13:50:35.848Z,34.92
2023-05-15T13:53:03.696Z,34.45
2023-05-15T13:55:31.519Z,35.83
2023-05-15T13:57:59.608Z,34.43
2023-05-15T14:00:27.410Z,33.29
2023-05-15T14:02:55.352Z,34.19
2023-05-15T14:05:23.069Z,35.34
2023-05-15T14:07:52.122Z,33.75
2023-05-15T14:10:19.894Z,35.46
2023-05-15T14:12:47.519Z,36.83
2023-05-15T14:15:15.331Z,37.55
2023-05-15T14:17:43.196Z,35.17
2023-05-15T14:20:12.720Z,35.54
2023-05-15T14:22:49.459Z,35.72
2023-05-15T14:25:18.625Z,36.85
2023-05-15T14:27:46.389Z,37.88
2023-05-15T14:30:14.610Z,36.42
2023-05-15T14:32:45.283Z,33.92
2023-05-15T14:35:13.169Z,33.13
2023-05-15T14:37:40.867Z,34.61
2023-05-15T14:40:10.240Z,35.93
2023-05-15T14:42:40.443Z,34.75
2023-05-15T14:45:09.210Z,38.15
2023-05-15T14:47:36.859Z,33.98
2023-05-15T14:50:05.162Z,33.45
2023-05-15T14:52:32.835Z,35.39
2023-05-15T14:55:09.366Z,37.25
2023-05-15T14:57:39.593Z,34.68
2023-05-15T15:00:09.571Z,38.88
2023-05-15T15:02:37.409Z,37.57
2023-05-15T15:05:05.752Z,36.82
2023-05-15T15:07:59.509Z,39.65
2023-05-15T15:10:27.627Z,38.38
2023-05-15T15:12:56.913Z,35.26
2023-05-15T15:15:24.678Z,36.71
2023-05-15T15:17:52.697Z,35.72
2023-05-15T15:20:21.826Z,36.14
2023-05-15T15:22:49.642Z,35.09
2023-05-15T15:25:17.422Z,33.82
2023-05-15T15:27:46.508Z,35.18
2023-05-15T15:30:16.652Z,35.65
2023-05-15T15:32:47.456Z,34.96
2023-05-15T15:35:15.162Z,34.33
2023-05-15T15:37:42.960Z,34.29
2023-05-15T15:40:12.025Z,31.63
2023-05-15T15:42:39.794Z,33.61
2023-05-15T15:45:08.583Z,32.51
2023-05-15T15:47:37.997Z,32.27
2023-05-15T15:50:06.406Z,31.27
2023-05-15T15:52:34.048Z,31.19
2023-05-15T15:55:02.067Z,28.66
2023-05-15T15:57:31.225Z,28.95
2023-05-15T15:59:59.060Z,29.29
2023-05-15T16:02:26.841Z,29.45
2023-05-15T16:04:55.931Z,29.03
2023-05-15T16:07:23.830Z,29.05
2023-05-15T16:10:00.433Z,30.31
2023-05-15T16:12:39.832Z,29.46
2023-05-15T16:17:42.841Z,33.46
2023-05-15T16:20:12.509Z,33.98
2023-05-15T16:22:41.765Z,34.77
2023-05-15T16:25:10.167Z,34.86
2023-05-15T16:27:38.146Z,36.60
2023-05-15T16:30:06.614Z,36.40
2023-05-15T16:32:34.809Z,35.46
2023-05-15T16:35:02.727Z,33.07
2023-05-15T16:37:32.636Z,35.70
2023-05-15T16:40:00.772Z,34.74
2023-05-15T16:42:28.480Z,36.63
2023-05-15T16:44:56.186Z,37.83
2023-05-15T16:47:24.194Z,36.80
2023-05-15T16:49:51.931Z,41.01
2023-05-15T16:52:19.607Z,44.11
2023-05-15T16:54:49.029Z,48.78
2023-05-15T16:57:17.046Z,50.92
2023-05-15T16:59:44.864Z,52.11
2023-05-15T17:02:12.668Z,54.81
2023-05-15T17:04:40.354Z,50.83
2023-05-15T17:07:09.191Z,52.92
2023-05-15T17:09:38.401Z,57.58
2023-05-15T17:12:08.481Z,57.37
2023-05-15T17:14:36.154Z,58.49
2023-05-15T17:17:03.846Z,59.96
2023-05-15T17:19:32.262Z,61.53
2023-05-15T17:21:59.917Z,58.97
2023-05-15T17:24:35.541Z,62.41
2023-05-15T17:27:18.351Z,62.88
2023-05-15T17:29:46.838Z,64.28
2023-05-15T17:32:15.838Z,59.81
2023-05-15T17:34:43.671Z,63.59
2023-05-15T17:37:11.690Z,60.81
2023-05-15T17:39:39.418Z,62.33
2023-05-15T17:42:07.102Z,62.48
2023-05-15T17:44:36.323Z,64.03
2023-05-15T17:47:04.205Z,62.08
2023-05-15T17:49:34.381Z,60.10
2023-05-15T17:52:02.098Z,60.64
2023-05-15T17:54:29.978Z,58.78
2023-05-15T17:56:57.813Z,58.95
2023-05-15T17:59:25.523Z,59.02
2023-05-15T18:01:55.035Z,58.83
2023-05-15T18:04:23.052Z,56.73
2023-05-15T18:06:50.809Z,60.65
2023-05-15T18:09:23.121Z,60.50
2023-05-15T18:11:51.788Z,58.57
2023-05-15T18:14:19.449Z,60.14
2023-05-15T18:16:47.133Z,58.37
2023-05-15T18:19:16.522Z,57.32
2023-05-15T18:21:44.699Z,60.75
2023-05-15T18:24:12.611Z,66.41
2023-05-15T18:26:40.381Z,65.74
2023-05-15T18:29:08.281Z,68.47
2023-05-15T18:31:36.310Z,65.49
2023-05-15T18:34:04.135Z,66.53
2023-05-15T18:36:33.399Z,67.35
2023-05-15T18:39:02.465Z,71.65
2023-05-15T18:41:30.794Z,66.95
2023-05-15T18:43:58.661Z,72.05
2023-05-15T18:46:28.409Z,69.64
2023-05-15T18:48:56.394Z,74.94
2023-05-15T18:51:24.557Z,72.02
2023-05-15T18:53:53.729Z,74.16
2023-05-15T18:56:21.663Z,75.06
2023-05-15T18:58:49.451Z,73.23
2023-05-15T19:01:17.462Z,71.52
2023-05-15T19:03:45.443Z,75.05
2023-05-15T19:06:19.788Z,74.30
2023-05-15T19:08:48.503Z,75.45
2023-05-15T19:11:17.961Z,75.85
2023-05-15T19:13:45.696Z,72.19
2023-05-15T19:16:13.522Z,76.69
2023-05-15T19:18:41.723Z,80.03
2023-05-15T19:21:09.558Z,76.38
2023-05-15T19:23:37.502Z,78.08
2023-05-15T19:26:05.207Z,76.80
2023-05-15T19:28:34.613Z,74.51
2023-05-15T19:31:02.514Z,74.99
2023-05-15T19:33:30.210Z,77.11
2023-05-15T19:35:57.965Z,71.53
2023-05-15T19:38:25.698Z,77.16
2023-05-15T19:40:53.385Z,78.97
2023-05-15T19:43:21.026Z,75.49
2023-05-15T19:45:50.348Z,77.74
2023-05-15T19:48:18.035Z,78.12
2023-05-15T19:50:46.366Z,77.83
2023-05-15T19:53:14.048Z,80.60
2023-05-15T19:55:41.779Z,79.01
2023-05-15T19:58:09.965Z,81.20
2023-05-15T20:00:37.671Z,82.56
2023-05-15T20:03:06.900Z,84.75
2023-05-15T20:05:34.598Z,80.22
2023-05-15T20:08:02.379Z,80.38
2023-05-15T20:10:30.127Z,81.81
2023-05-15T20:12:57.866Z,76.38
2023-05-15T20:15:29.255Z,80.83
2023-05-15T20:17:57.120Z,77.33
2023-05-15T20:20:27.031Z,79.29
2023-05-15T20:22:54.932Z,71.76
2023-05-15T20:25:24.218Z,79.98
2023-05-15T20:27:56.406Z,79.95
2023-05-15T20:30:24.536Z,69.25
2023-05-15T20:32:52.824Z,74.53
2023-05-15T20:35:20.877Z,72.71
2023-05-15T20:37:49.977Z,69.36
2023-05-15T20:42:59.357Z,76.49
2023-05-15T20:45:27.201Z,73.72
2023-05-15T20:47:55.018Z,72.49
2023-05-15T20:50:22.890Z,75.62
2023-05-15T20:52:52.014Z,74.01
2023-05-15T20:55:21.600Z,71.90
2023-05-15T20:57:50.330Z,72.78
2023-05-15T21:00:19.087Z,73.57
2023-05-15T21:02:47.385Z,74.12
2023-05-15T21:05:27.191Z,75.82
2023-05-15T21:07:56.439Z,77.52
2023-05-15T21:10:24.390Z,73.67
2023-05-15T21:12:52.383Z,77.15
2023-05-15T21:15:20.083Z,78.87
2023-05-15T21:17:47.821Z,78.64
2023-05-15T21:20:15.530Z,75.12
2023-05-15T21:22:43.242Z,80.53
2023-05-15T21:25:12.589Z,77.06
2023-05-15T21:27:40.554Z,69.70
2023-05-15T21:30:09.765Z,74.78
2023-05-15T21:32:37.446Z,71.27
2023-05-15T21:35:05.641Z,75.40
2023-05-15T21:37:33.289Z,74.71
2023-05-15T21:40:02.015Z,79.36
2023-05-15T21:42:31.898Z,77.41
2023-05-15T21:45:00.200Z,71.74
2023-05-15T21:47:28.180Z,73.93
2023-05-15T21:49:55.850Z,73.67
2023-05-15T21:52:23.557Z,81.91
2023-05-15T21:54:51.276Z,80.25
2023-05-15T21:57:19.043Z,81.58
2023-05-15T21:59:48.500Z,83.28
2023-05-15T22:02:16.411Z,82.55
2023-05-15T22:04:44.287Z,83.79
2023-05-15T22:07:14.393Z,81.40
2023-05-15T22:09:42.362Z,80.51
2023-05-15T22:12:10.158Z,83.48
2023-05-15T22:14:41.798Z,80.52
2023-05-15T22:17:17.287Z,81.01
2023-05-15T22:19:45.804Z,78.48
2023-05-15T22:22:13.824Z,85.45
2023-05-15T22:24:41.908Z,82.26
2023-05-15T22:27:09.584Z,78.19
2023-05-15T22:29:37.319Z,76.36
2023-05-15T22:32:05.490Z,81.52
2023-05-15T22:34:34.744Z,74.57
2023-05-15T22:37:02.575Z,74.16
2023-05-15T22:39:30.399Z,76.32
2023-05-15T22:41:58.083Z,80.33
2023-05-15T22:44:25.780Z,74.80
2023-05-15T22:46:53.502Z,73.52
2023-05-15T22:49:25.384Z,78.01
2023-05-15T22:51:54.900Z,79.48
2023-05-15T22:54:23.568Z,71.60
2023-05-15T22:56:52.172Z,73.67
2023-05-15T22:59:20.093Z,76.28
2023-05-15T23:01:49.166Z,79.79
2023-05-15T23:07:01.155Z,77.32
2023-05-15T23:09:28.835Z,86.71
2023-05-15T23:11:56.490Z,85.01
2023-05-15T23:14:24.309Z,81.00
2023-05-15T23:16:52.166Z,80.24
2023-05-15T23:19:19.949Z,87.16
2023-05-15T23:21:47.776Z,86.13
2023-05-15T23:24:17.430Z,87.37
2023-05-15T23:26:47.206Z,83.94
2023-05-15T23:29:14.875Z,83.40
2023-05-15T23:31:43.134Z,86.78
2023-05-15T23:34:11.214Z,80.84
2023-05-15T23:36:38.923Z,83.33
2023-05-15T23:39:06.597Z,84.84
2023-05-15T23:41:36.473Z,88.64
2023-05-15T23:44:04.401Z,88.79
2023-05-15T23:46:32.169Z,86.71
2023-05-15T23:48:59.905Z,84.58
2023-05-15T23:51:27.618Z,84.12
2023-05-15T23:53:55.287Z,82.38
2023-05-15T23:56:23.797Z,84.12
2023-05-15T23:58:52.863Z,83.96
